Time;durP1;ratioP1;P1;durP2;ratioP2;P2;SDS_P1;SDS_P2;PMS_P1;PMS_P2;Temp;Humidity;BMP_temperature;BMP_pressure;BME280_temperature;BME280_humidity;BME280_pressure;Samples;Min_cycle;Max_cycle;Signal;HPM_P1;HPM_P2
2022/03/19 00:01:13;;;;;;;21.37;12.73;;;1.90;99.90;1.60;103295.00;;;;4947721;28;93104;-67
2022/03/19 00:03:40;;;;;;;25.17;14.17;;;1.90;99.90;1.60;103285.00;;;;4954376;28;93978;-67
2022/03/19 00:06:06;;;;;;;21.97;12.47;;;1.90;99.90;1.60;103283.00;;;;4953362;28;92942;-67
2022/03/19 00:08:32;;;;;;;24.57;14.40;;;1.90;99.90;1.60;103288.00;;;;4944212;28;105163;-67
2022/03/19 00:10:59;;;;;;;16.73;10.63;;;1.90;99.90;1.60;103288.00;;;;4933934;28;99057;-67
2022/03/19 00:13:25;;;;;;;21.83;12.67;;;1.90;99.90;1.50;103286.00;;;;4934951;28;92834;-67
2022/03/19 00:15:50;;;;;;;25.03;13.83;;;1.80;99.90;1.50;103286.00;;;;4944743;28;109113;-67
2022/03/19 00:18:16;;;;;;;16.37;11.03;;;1.80;99.90;1.40;103291.00;;;;4953755;28;107258;-67
2022/03/19 00:20:42;;;;;;;14.97;11.60;;;1.80;99.90;1.40;103294.00;;;;4951690;28;93852;-67
2022/03/19 00:23:08;;;;;;;21.00;13.10;;;1.70;99.90;1.40;103290.00;;;;4953837;28;100946;-67
2022/03/19 00:25:34;;;;;;;18.13;12.07;;;1.70;99.90;1.30;103296.00;;;;4949494;28;109654;-67
2022/03/19 00:28:00;;;;;;;19.53;12.40;;;1.70;99.90;1.30;103289.00;;;;4951424;28;111837;-67
2022/03/19 00:30:26;;;;;;;20.83;12.17;;;1.60;99.90;1.30;103288.00;;;;4930126;28;122588;-67
2022/03/19 00:32:51;;;;;;;21.03;11.60;;;1.60;99.90;1.20;103290.00;;;;4915133;28;93018;-67
2022/03/19 00:35:17;;;;;;;22.00;12.17;;;1.50;99.90;1.20;103286.00;;;;4915023;28;93523;-67
2022/03/19 00:37:46;;;;;;;18.27;10.60;;;1.50;99.90;1.10;103292.00;;;;4912390;28;123274;-68
2022/03/19 00:40:15;;;;;;;18.37;11.83;;;1.50;99.90;1.10;103297.00;;;;4912362;28;92798;-67
2022/03/19 00:42:41;;;;;;;20.13;13.83;;;1.50;99.90;1.10;103295.00;;;;4912953;28;92869;-67
2022/03/19 00:45:09;;;;;;;21.77;12.47;;;1.40;99.90;1.00;103288.00;;;;4920377;28;92089;-66
2022/03/19 00:47:35;;;;;;;20.83;12.50;;;1.30;99.90;1.00;103282.00;;;;4934020;28;93621;-67
2022/03/19 00:50:05;;;;;;;15.43;12.03;;;1.30;99.90;1.00;103282.00;;;;4932875;28;93157;-67
2022/03/19 00:52:31;;;;;;;17.53;12.47;;;1.30;99.90;0.90;103288.00;;;;4931412;28;93758;-67
2022/03/19 00:54:57;;;;;;;15.03;10.70;;;1.30;99.90;0.90;103273.00;;;;4933870;28;92732;-67
2022/03/19 00:57:23;;;;;;;15.00;11.83;;;1.20;99.90;0.90;103283.00;;;;4922226;28;107029;-66
2022/03/19 00:59:48;;;;;;;20.90;11.97;;;1.20;99.90;1.00;103287.00;;;;4913541;28;121973;-66
2022/03/19 01:02:14;;;;;;;13.97;11.20;;;1.30;99.90;1.10;103291.00;;;;4914732;28;93013;-66
2022/03/19 01:04:40;;;;;;;18.53;11.17;;;1.40;99.90;1.30;103297.00;;;;4913350;28;110614;-67
2022/03/19 01:07:05;;;;;;;17.73;11.07;;;1.50;99.90;1.40;103293.00;;;;4911620;28;122973;-68
2022/03/19 01:09:31;;;;;;;20.50;11.90;;;1.60;99.90;1.60;103281.00;;;;4932719;28;122280;-68
2022/03/19 01:11:56;;;;;;;15.93;11.43;;;1.80;99.90;1.80;103299.00;;;;4932432;28;113554;-68
2022/03/19 01:14:22;;;;;;;15.10;10.43;;;2.00;99.90;2.00;103296.00;;;;4914213;28;106738;-67
2022/03/19 01:16:48;;;;;;;19.27;10.87;;;2.10;99.90;2.20;103290.00;;;;4912670;28;123354;-67
2022/03/19 01:19:14;;;;;;;15.30;9.73;;;2.30;99.90;2.40;103279.00;;;;4912699;28;124083;-66
2022/03/19 01:21:40;;;;;;;14.03;7.60;;;2.50;99.90;2.60;103287.00;;;;4915674;28;92848;-67
2022/03/19 01:24:06;;;;;;;17.20;8.23;;;2.70;99.90;2.70;103285.00;;;;4914379;28;108585;-68
2022/03/19 01:26:32;;;;;;;14.10;7.90;;;2.90;99.90;3.00;103287.00;;;;4928742;28;111058;-67
2022/03/19 01:28:58;;;;;;;13.20;8.07;;;3.10;99.90;3.10;103286.00;;;;4931684;28;122378;-66
2022/03/19 01:31:26;;;;;;;13.20;6.33;;;3.20;99.90;3.30;103297.00;;;;4943784;28;93079;-67
2022/03/19 01:33:56;;;;;;;10.83;5.70;;;3.40;99.90;3.50;103279.00;;;;4936431;28;92176;-66
2022/03/19 01:36:22;;;;;;;9.20;5.63;;;3.60;99.90;3.60;103277.00;;;;4936956;28;93261;-66
2022/03/19 01:38:48;;;;;;;9.40;4.57;;;3.70;99.90;3.80;103274.00;;;;4933072;28;121387;-67
2022/03/19 01:41:14;;;;;;;8.93;4.67;;;3.90;99.90;3.90;103267.00;;;;4931934;28;108312;-67
2022/03/19 01:43:40;;;;;;;6.93;4.23;;;4.00;99.90;4.00;103281.00;;;;4933514;28;107711;-67
2022/03/19 01:46:07;;;;;;;6.63;3.97;;;4.10;99.90;4.20;103273.00;;;;4931813;28;123030;-67
2022/03/19 01:48:33;;;;;;;6.70;4.37;;;4.30;99.90;4.30;103263.00;;;;4940935;28;93602;-68
2022/03/19 01:50:59;;;;;;;4.93;3.40;;;4.40;99.90;4.50;103273.00;;;;4950056;28;101298;-68
2022/03/19 01:53:24;;;;;;;7.50;4.23;;;4.60;99.90;4.60;103265.00;;;;4940385;28;94574;-68
2022/03/19 01:55:53;;;;;;;5.47;3.70;;;4.70;99.90;4.70;103261.00;;;;4931743;28;122354;-67
2022/03/19 01:58:19;;;;;;;4.50;3.33;;;4.80;99.90;4.80;103269.00;;;;4916246;28;92424;-66
2022/03/19 02:00:45;;;;;;;5.37;3.10;;;5.40;99.90;4.90;103264.00;;;;4931488;28;110867;-68
2022/03/19 02:03:12;;;;;;;9.30;3.10;;;5.10;99.90;5.00;103268.00;;;;4920771;28;107296;-67
2022/03/19 02:05:38;;;;;;;6.23;3.37;;;5.10;99.90;5.10;103271.00;;;;4951676;28;125450;-67
2022/03/19 02:08:04;;;;;;;7.13;3.30;;;5.20;99.90;5.20;103269.00;;;;4933308;28;94585;-66
2022/03/19 02:10:30;;;;;;;7.23;3.00;;;5.30;99.90;5.20;103273.00;;;;4952267;28;102391;-66
2022/03/19 02:12:56;;;;;;;5.50;3.20;;;5.30;99.90;5.30;103270.00;;;;4946252;28;92727;-65
2022/03/19 02:15:22;;;;;;;4.63;2.97;;;5.40;99.90;5.40;103261.00;;;;4933254;28;94247;-66
2022/03/19 02:17:49;;;;;;;6.87;3.50;;;5.50;99.90;5.40;103264.00;;;;4929845;28;102492;-66
2022/03/19 02:20:15;;;;;;;7.07;3.57;;;5.50;99.90;5.50;103252.00;;;;4950573;28;92989;-67
2022/03/19 02:22:41;;;;;;;4.47;2.90;;;5.60;99.90;5.50;103254.00;;;;4951905;28;108804;-66
2022/03/19 02:27:52;;;;;;;6.13;3.13;;;5.70;99.90;5.50;103243.00;;;;4950082;28;92939;-66
2022/03/19 02:30:18;;;;;;;13.90;3.67;;;5.60;99.90;5.50;103253.00;;;;4951976;28;95438;-67
2022/03/19 02:32:49;;;;;;;12.93;3.27;;;5.60;99.90;5.50;103247.00;;;;4952811;28;96968;-67
2022/03/19 02:35:16;;;;;;;5.20;2.87;;;5.60;99.90;5.40;103242.00;;;;4952069;28;93873;-66
2022/03/19 02:37:45;;;;;;;5.20;3.33;;;5.60;99.90;5.40;103232.00;;;;4952158;28;94027;-67
2022/03/19 02:40:15;;;;;;;4.80;2.60;;;5.60;99.90;5.40;103243.00;;;;4952892;28;93040;-67
2022/03/19 02:42:41;;;;;;;5.53;3.00;;;5.50;99.90;5.30;103239.00;;;;4952645;28;92971;-67
2022/03/19 02:45:08;;;;;;;6.93;3.00;;;5.60;99.90;5.30;103245.00;;;;4935974;28;93952;-66
2022/03/19 02:47:56;;;;;;;3.40;2.33;;;5.40;99.90;5.20;103245.00;;;;4933209;28;93868;-66
2022/03/19 02:50:20;;;;;;;10.30;2.57;;;5.40;99.90;5.10;103240.00;;;;4939201;28;92912;-66
2022/03/19 02:52:46;;;;;;;7.13;2.70;;;5.40;99.90;5.10;103236.00;;;;4951880;28;101389;-66
2022/03/19 02:55:11;;;;;;;2.80;2.37;;;5.30;99.90;5.00;103235.00;;;;4948568;28;123679;-66
2022/03/19 02:57:37;;;;;;;5.20;2.50;;;5.10;99.90;4.80;103226.00;;;;4951790;28;123316;-66
2022/03/19 03:00:03;;;;;;;6.07;3.10;;;5.00;99.90;4.70;103225.00;;;;4951177;28;108768;-67
2022/03/19 03:02:29;;;;;;;5.77;3.07;;;5.00;99.90;4.60;103225.00;;;;4954925;28;99727;-66
2022/03/19 03:04:55;;;;;;;6.83;2.83;;;4.90;99.90;4.50;103214.00;;;;4954842;28;93625;-66
2022/03/19 03:07:20;;;;;;;7.27;2.93;;;4.70;99.90;4.40;103215.00;;;;4953136;28;121807;-69
2022/03/19 03:09:46;;;;;;;6.10;3.27;;;4.60;99.90;4.20;103213.00;;;;4954677;28;110524;-67
2022/03/19 03:12:12;;;;;;;3.33;2.40;;;4.50;99.90;4.10;103211.00;;;;4955064;28;92165;-66
2022/03/19 03:14:37;;;;;;;5.13;2.60;;;4.40;99.90;4.00;103213.00;;;;4935094;28;121975;-66
2022/03/19 03:17:04;;;;;;;3.83;2.70;;;4.30;99.90;4.00;103221.00;;;;4934332;28;123358;-67
2022/03/19 03:19:29;;;;;;;3.80;2.67;;;4.20;99.90;3.90;103217.00;;;;4938075;28;93761;-66
2022/03/19 03:21:55;;;;;;;3.30;2.37;;;4.10;99.90;3.80;103220.00;;;;4954635;28;107808;-66
2022/03/19 03:24:22;;;;;;;5.30;2.93;;;4.00;99.90;3.70;103209.00;;;;4951939;28;121591;-66
2022/03/19 03:26:48;;;;;;;5.10;3.00;;;3.90;99.90;3.60;103204.00;;;;4954537;28;92975;-67
2022/03/19 03:29:14;;;;;;;8.47;3.50;;;3.90;99.90;3.50;103211.00;;;;4944865;28;92864;-67
2022/03/19 03:31:40;;;;;;;5.20;2.90;;;3.80;99.90;3.50;103198.00;;;;4934871;28;92989;-66
2022/03/19 03:34:05;;;;;;;3.17;2.10;;;3.70;99.90;3.40;103200.00;;;;4934937;28;122061;-66
2022/03/19 03:36:31;;;;;;;3.50;2.50;;;3.70;99.90;3.40;103213.00;;;;4913067;28;121758;-67
2022/03/19 03:38:57;;;;;;;4.10;2.57;;;3.60;99.90;3.30;103206.00;;;;4927320;28;92890;-66
2022/03/19 03:41:23;;;;;;;6.47;3.03;;;3.60;99.90;3.30;103201.00;;;;4939143;28;94977;-66
2022/03/19 03:43:49;;;;;;;2.53;2.30;;;3.50;99.90;3.20;103201.00;;;;4953761;28;124547;-66
2022/03/19 03:46:15;;;;;;;7.60;3.17;;;3.40;99.90;3.20;103199.00;;;;4953428;28;112178;-66
2022/03/19 03:48:40;;;;;;;10.93;3.50;;;3.50;99.90;3.20;103197.00;;;;4954922;28;110060;-66
2022/03/19 03:51:07;;;;;;;3.50;2.43;;;3.40;99.90;3.10;103190.00;;;;4954192;28;92661;-66
2022/03/19 03:53:35;;;;;;;8.53;3.20;;;3.30;99.90;3.00;103193.00;;;;4937105;28;93975;-66
2022/03/19 03:56:03;;;;;;;9.40;3.43;;;3.20;99.90;2.90;103192.00;;;;4953433;28;115635;-67
2022/03/19 03:58:29;;;;;;;9.53;2.87;;;3.20;99.90;2.80;103199.00;;;;4954924;28;97417;-67
2022/03/19 04:00:56;;;;;;;10.23;2.87;;;3.10;99.90;2.80;103198.00;;;;4935981;28;91912;-67
2022/03/19 04:03:21;;;;;;;7.40;2.40;;;3.10;99.90;2.70;103188.00;;;;4937063;28;93146;-67
2022/03/19 04:05:47;;;;;;;3.27;2.47;;;3.00;99.90;2.60;103189.00;;;;4943392;28;94170;-67
2022/03/19 04:08:13;;;;;;;6.63;2.67;;;2.90;99.90;2.50;103196.00;;;;4945921;28;93706;-66
2022/03/19 04:10:38;;;;;;;11.17;3.30;;;2.80;99.90;2.40;103191.00;;;;4941337;28;108261;-68
2022/03/19 04:13:04;;;;;;;2.97;2.47;;;2.70;99.90;2.30;103183.00;;;;4933225;28;122305;-67
2022/03/19 04:15:30;;;;;;;9.20;2.80;;;2.60;99.90;2.20;103185.00;;;;4933789;28;122422;-67
2022/03/19 04:17:56;;;;;;;3.93;2.57;;;2.50;99.90;2.10;103190.00;;;;4934702;28;105843;-67
2022/03/19 04:20:22;;;;;;;10.33;2.63;;;2.40;99.90;2.00;103194.00;;;;4942733;28;92879;-68
2022/03/19 04:22:49;;;;;;;5.67;2.20;;;2.30;99.90;1.90;103180.00;;;;4935023;28;93343;-68
2022/03/19 04:25:18;;;;;;;3.67;2.10;;;2.30;99.90;1.90;103184.00;;;;4940242;28;92765;-68
2022/03/19 04:27:50;;;;;;;5.40;3.63;;;2.20;99.90;1.80;103177.00;;;;4936820;28;92999;-67
2022/03/19 04:30:18;;;;;;;7.37;3.47;;;2.10;99.90;1.80;103165.00;;;;4952507;28;93130;-67
2022/03/19 04:32:52;;;;;;;2.83;2.17;;;2.10;99.90;1.70;103173.00;;;;4953776;28;104971;-67
2022/03/19 04:38:07;;;;;;;7.87;3.67;;;2.00;99.90;1.60;103178.00;;;;4937232;28;92827;-66
2022/03/19 04:40:34;;;;;;;3.87;2.93;;;1.90;99.90;1.60;103182.00;;;;4936729;28;92932;-67
2022/03/19 04:43:00;;;;;;;8.03;4.00;;;1.90;99.90;1.60;103180.00;;;;4934699;28;93630;-68
2022/03/19 04:45:26;;;;;;;5.83;3.43;;;1.90;99.90;1.60;103186.00;;;;4934394;28;92877;-67
2022/03/19 04:47:52;;;;;;;4.90;3.17;;;1.90;99.90;1.60;103182.00;;;;4935059;28;92969;-68
2022/03/19 04:50:18;;;;;;;17.53;3.67;;;1.90;99.90;1.60;103184.00;;;;4940770;28;92111;-67
2022/03/19 04:52:44;;;;;;;5.00;3.43;;;1.90;99.90;1.70;103183.00;;;;4953126;28;115027;-67
2022/03/19 04:55:11;;;;;;;7.27;3.93;;;1.90;99.90;1.70;103183.00;;;;4953353;28;93217;-66
2022/03/19 04:57:37;;;;;;;8.53;4.33;;;1.90;99.90;1.70;103182.00;;;;4953087;28;110745;-65
2022/03/19 05:00:05;;;;;;;3.60;3.30;;;1.90;99.90;1.70;103175.00;;;;4953472;28;100226;-66
2022/03/19 05:02:32;;;;;;;4.37;3.40;;;2.00;99.90;1.80;103185.00;;;;4954058;28;101067;-67
2022/03/19 05:04:57;;;;;;;7.17;4.03;;;2.00;99.90;1.80;103186.00;;;;4953569;28;93477;-66
2022/03/19 05:07:27;;;;;;;12.67;3.50;;;2.00;99.90;1.80;103183.00;;;;4952329;28;92698;-67
2022/03/19 05:12:41;;;;;;;6.57;3.40;;;2.10;99.90;1.70;103191.00;;;;4933366;28;92810;-66
2022/03/19 05:15:10;;;;;;;6.27;3.83;;;2.00;99.90;1.70;103181.00;;;;4953265;28;109227;-67
2022/03/19 05:17:37;;;;;;;9.67;4.03;;;2.00;99.90;1.70;103187.00;;;;4953713;28;97116;-66
2022/03/19 05:20:04;;;;;;;15.03;3.90;;;2.00;99.90;1.60;103196.00;;;;4948178;28;96227;-66
2022/03/19 05:22:30;;;;;;;7.50;4.53;;;1.90;99.90;1.60;103188.00;;;;4932876;28;95410;-67
2022/03/19 05:24:57;;;;;;;5.97;3.93;;;1.90;99.90;1.60;103196.00;;;;4935309;28;114285;-67
2022/03/19 05:27:23;;;;;;;4.93;3.90;;;1.90;99.90;1.60;103198.00;;;;4953749;28;97717;-66
2022/03/19 05:29:49;;;;;;;4.27;3.63;;;1.80;99.90;1.50;103189.00;;;;4953368;28;92999;-66
2022/03/19 05:32:16;;;;;;;5.40;3.77;;;1.80;99.90;1.50;103196.00;;;;4951969;28;123089;-67
2022/03/19 05:34:43;;;;;;;9.13;4.27;;;1.80;99.90;1.50;103196.00;;;;4948630;28;93179;-67
2022/03/19 05:37:11;;;;;;;4.57;3.03;;;1.80;99.90;1.50;103186.00;;;;4914864;28;110765;-67
2022/03/19 05:39:38;;;;;;;4.70;4.03;;;1.90;99.90;1.60;103185.00;;;;4916560;28;92344;-67
2022/03/19 05:42:05;;;;;;;15.87;4.87;;;1.90;99.90;1.70;103190.00;;;;4932405;28;114703;-65
2022/03/19 05:44:31;;;;;;;11.63;3.83;;;1.90;99.90;1.70;103184.00;;;;4915571;28;97784;-67
2022/03/19 05:47:00;;;;;;;13.03;3.73;;;2.10;99.90;1.80;103189.00;;;;4933569;28;97062;-67
2022/03/19 05:49:27;;;;;;;11.50;4.80;;;2.00;99.90;1.90;103183.00;;;;4934295;28;92685;-68
2022/03/19 05:51:54;;;;;;;8.63;4.77;;;2.20;99.90;2.00;103193.00;;;;4933040;28;93111;-67
2022/03/19 05:54:20;;;;;;;6.63;4.60;;;2.20;99.90;2.10;103195.00;;;;4932994;28;109033;-66
2022/03/19 05:56:46;;;;;;;5.80;4.57;;;2.30;99.90;2.30;103193.00;;;;4934350;28;93399;-66
2022/03/19 05:59:12;;;;;;;8.80;3.97;;;2.40;99.90;2.40;103192.00;;;;4933257;28;109066;-67
2022/03/19 06:01:39;;;;;;;7.17;4.53;;;2.60;99.90;2.50;103206.00;;;;4931993;28;120746;-67
2022/03/19 06:04:05;;;;;;;8.50;4.20;;;2.70;99.90;2.70;103200.00;;;;4947821;28;93399;-67
2022/03/19 06:06:31;;;;;;;11.57;5.70;;;2.80;99.90;2.80;103200.00;;;;4951003;28;93472;-67
2022/03/19 06:08:57;;;;;;;9.67;5.27;;;3.00;99.90;3.00;103205.00;;;;4941294;28;109272;-67
2022/03/19 06:11:23;;;;;;;7.67;4.00;;;3.10;99.90;3.10;103189.00;;;;4931492;28;123655;-68
2022/03/19 06:13:50;;;;;;;11.23;4.10;;;3.30;99.90;3.30;103199.00;;;;4933451;28;94743;-66
2022/03/19 06:16:15;;;;;;;7.70;4.03;;;3.40;99.90;3.40;103214.00;;;;4932353;28;108843;-66
2022/03/19 06:18:46;;;;;;;8.30;5.23;;;3.50;99.90;3.60;103199.00;;;;4948412;28;109554;-66
2022/03/19 06:21:12;;;;;;;4.40;3.43;;;3.70;99.90;3.70;103208.00;;;;4950297;28;93060;-67
2022/03/19 06:23:38;;;;;;;8.43;4.33;;;3.90;99.90;3.90;103207.00;;;;4933005;28;93382;-67
2022/03/19 06:26:03;;;;;;;9.53;4.30;;;4.00;99.90;4.10;103213.00;;;;4939906;28;101645;-67
2022/03/19 06:28:29;;;;;;;8.27;4.30;;;4.20;99.90;4.30;103204.00;;;;4928987;28;107354;-67
2022/03/19 06:30:55;;;;;;;7.30;4.23;;;4.50;99.90;4.50;103213.00;;;;4931988;28;122840;-67
2022/03/19 06:33:21;;;;;;;11.70;4.40;;;4.60;99.90;4.80;103208.00;;;;4928370;28;121618;-67
2022/03/19 06:38:33;;;;;;;6.00;4.23;;;5.00;99.90;5.20;103197.00;;;;4925952;28;92659;-66
2022/03/19 06:40:59;;;;;;;7.60;5.10;;;5.30;99.90;5.50;103192.00;;;;4934697;28;122206;-68
2022/03/19 06:43:26;;;;;;;6.20;3.60;;;5.60;99.90;5.80;103206.00;;;;4937183;28;94400;-68
2022/03/19 06:45:54;;;;;;;9.07;3.63;;;5.80;99.90;6.00;103210.00;;;;4931505;28;92691;-66
2022/03/19 06:48:21;;;;;;;7.03;4.93;;;6.00;99.90;6.20;103203.00;;;;4930375;28;93019;-67
2022/03/19 06:50:46;;;;;;;10.97;5.00;;;6.20;99.90;6.30;103201.00;;;;4933769;28;123326;-67
2022/03/19 06:53:12;;;;;;;8.50;4.43;;;6.40;99.90;6.50;103199.00;;;;4928983;28;122044;-67
2022/03/19 06:55:38;;;;;;;8.67;5.00;;;6.60;99.90;6.60;103197.00;;;;4928676;28;109480;-68
2022/03/19 06:58:03;;;;;;;15.50;5.83;;;6.70;99.90;6.80;103199.00;;;;4929502;28;92853;-67
2022/03/19 07:00:29;;;;;;;12.60;5.80;;;6.80;99.90;6.90;103187.00;;;;4927972;28;94768;-67
2022/03/19 07:02:55;;;;;;;7.03;4.10;;;6.90;99.90;7.00;103207.00;;;;4928073;28;121816;-66
2022/03/19 07:05:31;;;;;;;15.57;5.03;;;7.00;99.90;7.00;103209.00;;;;4931639;28;111654;-67
2022/03/19 07:07:58;;;;;;;5.53;3.20;;;7.10;99.90;7.00;103190.00;;;;4930283;28;92609;-67
2022/03/19 07:10:24;;;;;;;6.53;3.63;;;7.20;99.90;7.00;103201.00;;;;4935430;28;93902;-66
2022/03/19 07:12:53;;;;;;;9.57;5.13;;;7.10;99.90;7.10;103197.00;;;;4927955;28;124328;-66
2022/03/19 07:15:29;;;;;;;8.20;5.20;;;7.10;99.90;7.30;103197.00;;;;4932234;28;92940;-65
2022/03/19 07:18:00;;;;;;;10.53;5.83;;;7.30;99.90;7.40;103205.00;;;;4930430;28;92290;-66
2022/03/19 07:20:27;;;;;;;7.87;5.10;;;7.40;99.90;7.40;103209.00;;;;4928734;28;93435;-67
2022/03/19 07:23:04;;;;;;;10.10;5.57;;;7.50;99.90;7.50;103204.00;;;;4928867;28;111265;-66
2022/03/19 07:25:33;;;;;;;6.93;4.30;;;7.60;99.90;7.60;103201.00;;;;4929640;28;94514;-66
2022/03/19 07:28:03;;;;;;;6.20;4.27;;;7.80;99.90;7.60;103206.00;;;;4930163;28;97770;-66
2022/03/19 07:30:30;;;;;;;7.07;4.23;;;7.70;99.90;7.50;103203.00;;;;4928540;28;93446;-67
2022/03/19 07:32:56;;;;;;;8.67;5.07;;;7.70;99.90;7.50;103205.00;;;;4928246;28;93888;-67
2022/03/19 07:35:22;;;;;;;7.30;4.37;;;7.70;99.90;7.50;103197.00;;;;4935516;28;93840;-67
2022/03/19 07:37:48;;;;;;;6.40;4.57;;;7.60;99.90;7.80;103196.00;;;;4929447;28;93040;-66
2022/03/19 07:41:45;;;;;;;10.07;3.87;;;7.80;99.90;7.90;103208.00;;;;4911450;28;113987;-65
2022/03/19 07:43:08;;;;;;;6.40;3.97;;;7.90;99.90;7.70;103215.00;;;;4928839;28;93077;-67
2022/03/19 07:45:35;;;;;;;10.87;4.70;;;7.80;99.90;7.50;103206.00;;;;4918332;28;102347;-65
2022/03/19 07:48:02;;;;;;;4.30;3.87;;;7.60;99.90;7.40;103207.00;;;;4935722;28;92861;-66
2022/03/19 07:50:28;;;;;;;7.50;4.83;;;7.60;99.90;7.50;103198.00;;;;4933381;28;95039;-66
2022/03/19 07:52:54;;;;;;;10.03;4.27;;;7.50;99.90;7.50;103195.00;;;;4931589;28;113750;-66
2022/03/19 07:55:20;;;;;;;8.37;4.80;;;7.50;99.90;7.50;103198.00;;;;4932549;28;92892;-66
2022/03/19 07:57:46;;;;;;;12.53;4.80;;;7.50;99.90;7.60;103201.00;;;;4931766;28;92874;-67
2022/03/19 08:00:12;;;;;;;6.83;4.70;;;7.60;99.90;7.70;103201.00;;;;4933100;28;121901;-67
2022/03/19 08:02:42;;;;;;;10.03;4.53;;;7.70;99.90;8.00;103198.00;;;;4938951;28;92715;-66
2022/03/19 08:05:09;;;;;;;8.33;4.83;;;7.90;99.90;8.10;103196.00;;;;4933090;28;93151;-67
2022/03/19 08:07:37;;;;;;;8.30;4.97;;;8.10;99.90;8.40;103193.00;;;;4939759;28;92196;-67
2022/03/19 08:10:07;;;;;;;13.33;3.60;;;8.30;99.90;8.60;103194.00;;;;4937490;28;94026;-66
2022/03/19 08:12:34;;;;;;;12.30;5.20;;;8.50;99.90;8.70;103186.00;;;;4932032;28;114832;-66
2022/03/19 08:15:02;;;;;;;7.27;3.77;;;8.60;99.60;8.70;103197.00;;;;4931444;28;94157;-66
2022/03/19 08:17:28;;;;;;;6.00;3.57;;;8.70;98.00;8.60;103199.00;;;;4934935;28;93006;-66
2022/03/19 08:20:00;;;;;;;8.23;4.20;;;8.70;97.00;8.60;103191.00;;;;4934172;28;122766;-66
2022/03/19 08:22:26;;;;;;;6.53;4.23;;;8.60;97.20;8.70;103186.00;;;;4937509;28;92878;-66
2022/03/19 08:24:53;;;;;;;4.73;4.07;;;8.70;97.60;8.70;103190.00;;;;4934080;28;92970;-67
2022/03/19 08:27:20;;;;;;;10.10;4.67;;;8.70;96.00;8.40;103188.00;;;;4916095;28;93418;-66
2022/03/19 08:29:46;;;;;;;6.07;4.87;;;8.50;95.80;8.30;103180.00;;;;4930830;28;93936;-66
2022/03/19 08:32:12;;;;;;;10.63;5.43;;;8.30;96.50;8.10;103181.00;;;;4930158;28;122421;-66
2022/03/19 08:34:38;;;;;;;8.73;4.73;;;8.20;97.00;7.90;103179.00;;;;4933496;28;93085;-66
2022/03/19 08:37:05;;;;;;;7.30;4.83;;;8.00;97.20;7.80;103187.00;;;;4938081;28;93260;-65
2022/03/19 08:42:15;;;;;;;9.40;5.20;;;7.80;98.80;7.70;103176.00;;;;4931024;28;93734;-67
2022/03/19 08:44:41;;;;;;;11.23;4.23;;;7.70;99.10;7.60;103183.00;;;;4932936;28;92907;-66
2022/03/19 08:47:07;;;;;;;8.03;4.97;;;8.00;99.80;7.70;103181.00;;;;4932760;28;110469;-65
2022/03/19 08:49:32;;;;;;;8.07;5.47;;;7.60;99.90;7.70;103171.00;;;;4929977;28;123160;-65
2022/03/19 08:51:58;;;;;;;8.83;6.53;;;7.70;99.90;7.80;103167.00;;;;4929526;28;122810;-67
2022/03/19 08:54:24;;;;;;;8.30;5.40;;;7.80;99.90;7.80;103177.00;;;;4930275;28;111171;-66
2022/03/19 08:56:51;;;;;;;6.20;3.93;;;7.80;99.90;7.80;103183.00;;;;4935398;28;108579;-66
2022/03/19 08:59:20;;;;;;;7.13;4.73;;;7.80;99.90;7.70;103188.00;;;;4912000;28;93781;-67
2022/03/19 09:01:48;;;;;;;9.00;4.80;;;7.80;99.90;7.70;103196.00;;;;4912653;28;92824;-67
2022/03/19 09:04:15;;;;;;;9.33;4.67;;;7.70;99.90;7.70;103183.00;;;;4930493;28;93823;-67
2022/03/19 09:06:41;;;;;;;6.70;4.57;;;7.70;99.90;7.60;103194.00;;;;4943048;28;92879;-66
2022/03/19 09:09:07;;;;;;;9.43;5.50;;;8.20;99.90;7.50;103190.00;;;;4912813;28;105624;-66
2022/03/19 09:11:36;;;;;;;13.87;6.17;;;7.50;99.90;7.30;103180.00;;;;4929641;28;116278;-65
2022/03/19 09:14:04;;;;;;;8.77;5.07;;;7.50;99.90;7.20;103182.00;;;;4931174;28;92749;-66
2022/03/19 09:16:31;;;;;;;16.70;7.53;;;7.40;99.90;7.10;103183.00;;;;4941763;28;92964;-66
2022/03/19 09:18:57;;;;;;;12.03;6.30;;;7.30;99.90;7.00;103176.00;;;;4930923;28;93108;-66
2022/03/19 09:21:24;;;;;;;9.07;5.63;;;7.40;99.90;7.10;103185.00;;;;4930706;28;92979;-66
2022/03/19 09:23:50;;;;;;;11.30;5.77;;;7.10;99.90;7.10;103188.00;;;;4931006;28;93538;-66
2022/03/19 09:26:19;;;;;;;10.33;5.57;;;7.20;99.90;7.20;103185.00;;;;4936405;28;92864;-65
2022/03/19 09:28:45;;;;;;;9.53;5.33;;;7.20;99.90;7.10;103184.00;;;;4929793;28;96242;-67
2022/03/19 09:31:13;;;;;;;11.87;5.73;;;7.20;99.90;7.10;103185.00;;;;4932564;28;94732;-67
2022/03/19 09:33:40;;;;;;;9.37;5.90;;;7.20;99.90;7.10;103180.00;;;;4931840;28;92930;-66
2022/03/19 09:36:06;;;;;;;13.90;5.07;;;7.20;99.90;7.00;103181.00;;;;4929712;28;92901;-66
2022/03/19 09:38:32;;;;;;;8.60;5.43;;;7.20;99.90;6.90;103174.00;;;;4929317;28;122874;-66
2022/03/19 09:40:58;;;;;;;10.30;5.53;;;7.50;99.90;6.70;103168.00;;;;4930246;28;94399;-68
2022/03/19 09:43:26;;;;;;;6.40;4.33;;;6.90;99.90;6.60;103165.00;;;;4933967;28;93028;-65
2022/03/19 09:45:52;;;;;;;10.40;6.13;;;6.70;99.90;6.50;103161.00;;;;4931918;28;92410;-66
2022/03/19 09:48:19;;;;;;;6.53;4.97;;;6.90;99.90;6.50;103169.00;;;;4929802;28;108898;-66
2022/03/19 09:50:47;;;;;;;10.23;4.57;;;6.60;99.90;6.40;103158.00;;;;4935013;28;94606;-66
2022/03/19 09:53:15;;;;;;;7.23;4.10;;;6.50;99.90;6.30;103158.00;;;;4911545;28;103013;-66
2022/03/19 09:55:41;;;;;;;3.87;3.13;;;6.40;99.90;6.30;103159.00;;;;4911569;28;93056;-65
2022/03/19 09:58:06;;;;;;;4.27;3.87;;;6.40;99.90;6.30;103161.00;;;;4908371;28;94079;-67
2022/03/19 10:00:32;;;;;;;8.13;4.23;;;6.30;99.90;6.20;103172.00;;;;4930676;28;93538;-65
2022/03/19 10:03:02;;;;;;;3.57;2.83;;;6.30;99.90;6.20;103156.00;;;;4929301;28;111287;-66
2022/03/19 10:08:36;;;;;;;7.83;4.37;;;6.30;99.90;6.30;103162.00;;;;4927776;28;92899;-66
2022/03/19 10:11:14;;;;;;;7.90;4.17;;;6.30;99.90;6.40;103159.00;;;;4923613;28;92291;-66
2022/03/19 10:13:46;;;;;;;5.97;3.30;;;6.50;99.90;6.60;103163.00;;;;4911952;28;92957;-66
2022/03/19 10:16:24;;;;;;;6.43;4.33;;;6.60;99.90;6.70;103153.00;;;;4929173;28;93162;-68
2022/03/19 10:18:59;;;;;;;9.93;5.90;;;6.70;99.90;6.90;103142.00;;;;4929780;28;95055;-66
2022/03/19 10:21:27;;;;;;;7.50;4.70;;;6.80;99.90;7.00;103148.00;;;;4929011;28;93958;-67
2022/03/19 10:23:54;;;;;;;12.73;4.30;;;7.00;99.90;7.20;103152.00;;;;4930618;28;93074;-67
2022/03/19 10:26:34;;;;;;;12.57;5.67;;;7.50;99.90;7.40;103141.00;;;;4932095;28;92764;-67
2022/03/19 10:29:09;;;;;;;6.77;4.17;;;7.30;99.90;7.60;103142.00;;;;4935885;28;93493;-66
2022/03/19 10:31:47;;;;;;;6.33;4.03;;;7.50;99.90;7.90;103139.00;;;;4930131;28;93448;-66
2022/03/19 10:34:14;;;;;;;7.87;4.57;;;7.70;99.90;8.00;103143.00;;;;4930304;28;92679;-65
2022/03/19 10:36:43;;;;;;;7.33;4.57;;;7.90;99.90;8.10;103146.00;;;;4939423;28;92019;-67
2022/03/19 10:39:19;;;;;;;10.87;4.33;;;8.00;99.90;8.30;103140.00;;;;4918720;28;93124;-66
2022/03/19 10:41:46;;;;;;;3.97;3.63;;;8.20;99.90;8.30;103137.00;;;;4928383;28;111136;-66
2022/03/19 10:44:18;;;;;;;9.87;5.27;;;8.20;99.90;8.40;103134.00;;;;4929797;28;93850;-66
2022/03/19 10:46:49;;;;;;;8.97;5.77;;;8.30;99.90;8.50;103135.00;;;;4929613;28;93133;-66
2022/03/19 10:49:16;;;;;;;8.70;5.03;;;8.50;99.90;8.70;103138.00;;;;4929157;28;93143;-66
2022/03/19 10:51:47;;;;;;;7.77;4.53;;;8.60;99.90;8.80;103139.00;;;;4937265;28;111828;-66
2022/03/19 10:54:14;;;;;;;6.50;4.37;;;8.70;99.90;8.90;103139.00;;;;4930144;28;92883;-66
2022/03/19 10:56:41;;;;;;;8.87;4.40;;;8.80;99.80;9.00;103137.00;;;;4936108;28;92809;-66
2022/03/19 10:59:07;;;;;;;6.20;4.00;;;8.90;99.30;9.00;103138.00;;;;4931461;28;93750;-67
2022/03/19 11:01:36;;;;;;;6.83;4.50;;;9.00;98.60;9.20;103140.00;;;;4933945;28;117469;-66
2022/03/19 11:04:05;;;;;;;8.37;3.83;;;9.10;98.60;9.20;103135.00;;;;4911936;28;93455;-67
2022/03/19 11:06:52;;;;;;;7.83;3.90;;;9.20;97.00;9.40;103118.00;;;;4917544;28;93119;-67
2022/03/19 11:09:23;;;;;;;6.00;4.70;;;9.30;96.30;9.80;103143.00;;;;4911352;28;94139;-66
2022/03/19 11:12:01;;;;;;;7.47;4.17;;;9.50;95.40;10.00;103123.00;;;;4910481;28;97497;-66